createdAt,value
2022-12-11T00:00:04.346Z,89
2022-12-11T00:01:00.723Z,89
2022-12-11T00:02:00.814Z,89
2022-12-11T00:03:00.778Z,89
2022-12-11T00:04:00.792Z,89
2022-12-11T00:05:04.296Z,89
2022-12-11T00:06:00.856Z,89
2022-12-11T00:07:00.768Z,89
2022-12-11T00:08:00.905Z,89
2022-12-11T00:09:00.776Z,90
2022-12-11T00:10:04.480Z,90
2022-12-11T00:11:00.833Z,90
2022-12-11T00:12:00.912Z,90
2022-12-11T00:13:00.808Z,90
2022-12-11T00:14:00.860Z,90
2022-12-11T00:15:04.102Z,90
2022-12-11T00:16:00.913Z,90
2022-12-11T00:17:00.889Z,89
2022-12-11T00:18:00.957Z,89
2022-12-11T00:19:00.834Z,89
2022-12-11T00:20:04.862Z,89
2022-12-11T00:21:00.866Z,89
2022-12-11T00:22:00.923Z,89
2022-12-11T00:23:00.863Z,89
2022-12-11T00:24:00.979Z,89
2022-12-11T00:25:04.134Z,89
2022-12-11T00:26:00.956Z,89
2022-12-11T00:27:00.948Z,89
2022-12-11T00:28:00.978Z,89
2022-12-11T00:29:00.886Z,89
2022-12-11T00:30:05.064Z,89
2022-12-11T00:31:00.914Z,89
2022-12-11T00:32:01.006Z,89
2022-12-11T00:33:00.943Z,89
2022-12-11T00:34:00.980Z,89
2022-12-11T00:35:04.198Z,89
2022-12-11T00:36:01.057Z,89
2022-12-11T00:37:01.018Z,89
2022-12-11T00:38:01.031Z,89
2022-12-11T00:39:00.973Z,89
2022-12-11T00:40:04.758Z,89
2022-12-11T00:41:00.978Z,89
2022-12-11T00:42:01.077Z,89
2022-12-11T00:43:01.004Z,89
2022-12-11T00:44:01.061Z,89
2022-12-11T00:45:04.398Z,89
2022-12-11T00:46:01.178Z,89
2022-12-11T00:47:01.025Z,89
2022-12-11T00:48:01.125Z,89
2022-12-11T00:49:01.010Z,89
2022-12-11T00:50:06.173Z,89
2022-12-11T00:51:01.051Z,89
2022-12-11T00:52:01.148Z,89
2022-12-11T00:53:01.074Z,89
2022-12-11T00:54:01.175Z,89
2022-12-11T00:55:04.324Z,89
2022-12-11T00:56:01.149Z,89
2022-12-11T00:57:01.079Z,89
2022-12-11T00:58:01.205Z,89
2022-12-11T00:59:01.098Z,89
2022-12-11T01:00:05.139Z,89
2022-12-11T01:01:01.169Z,89
2022-12-11T01:02:01.182Z,89
2022-12-11T01:03:01.217Z,89
2022-12-11T01:04:01.194Z,89
2022-12-11T01:05:04.433Z,89
2022-12-11T01:06:01.252Z,89
2022-12-11T01:07:01.135Z,89
2022-12-11T01:08:01.239Z,90
2022-12-11T01:09:01.187Z,90
2022-12-11T01:10:04.964Z,90
2022-12-11T01:11:01.186Z,90
2022-12-11T01:12:01.305Z,90
2022-12-11T01:13:00.173Z,90
2022-12-11T01:14:00.297Z,90
2022-12-11T01:15:03.924Z,90
2022-12-11T01:16:00.281Z,90
2022-12-11T01:17:00.296Z,90
2022-12-11T01:18:00.321Z,90
2022-12-11T01:19:00.232Z,90
2022-12-11T01:20:04.088Z,90
2022-12-11T01:21:00.239Z,90
2022-12-11T01:22:00.332Z,90
2022-12-11T01:23:00.239Z,90
2022-12-11T01:24:00.375Z,90
2022-12-11T01:25:03.822Z,90
2022-12-11T01:26:00.336Z,90
2022-12-11T01:27:00.294Z,90
2022-12-11T01:28:00.335Z,90
2022-12-11T01:29:00.291Z,90
2022-12-11T01:30:04.338Z,90
2022-12-11T01:31:00.395Z,90
2022-12-11T01:32:00.374Z,90
2022-12-11T01:33:00.320Z,90
2022-12-11T01:34:00.404Z,90
2022-12-11T01:35:05.890Z,90
2022-12-11T01:36:00.412Z,90
2022-12-11T01:37:00.344Z,90
2022-12-11T01:38:00.419Z,90
2022-12-11T01:39:00.360Z,90
2022-12-11T01:40:04.969Z,90
2022-12-11T01:41:00.389Z,90
2022-12-11T01:42:00.477Z,90
2022-12-11T01:43:00.378Z,90
2022-12-11T01:44:00.445Z,90
2022-12-11T01:45:05.367Z,90
2022-12-11T01:46:00.513Z,90
2022-12-11T01:47:00.457Z,90
2022-12-11T01:48:00.488Z,90
2022-12-11T01:49:00.425Z,90
2022-12-11T01:50:03.940Z,90
2022-12-11T01:51:00.447Z,90
2022-12-11T01:52:00.532Z,90
2022-12-11T01:53:00.474Z,90
2022-12-11T01:54:00.560Z,90
2022-12-11T01:55:03.920Z,90
2022-12-11T01:56:00.557Z,90
2022-12-11T01:57:00.505Z,90
2022-12-11T01:58:00.564Z,90
2022-12-11T01:59:00.538Z,90
2022-12-11T02:00:04.096Z,90
2022-12-11T02:01:00.573Z,90
2022-12-11T02:02:00.607Z,90
2022-12-11T02:03:00.547Z,90
2022-12-11T02:04:00.593Z,90
2022-12-11T02:05:03.722Z,90
2022-12-11T02:06:00.625Z,90
2022-12-11T02:07:00.558Z,90
2022-12-11T02:08:00.698Z,90
2022-12-11T02:09:00.569Z,90
2022-12-11T02:10:04.440Z,90
2022-12-11T02:11:00.583Z,89
2022-12-11T02:12:00.683Z,89
2022-12-11T02:13:00.596Z,89
2022-12-11T02:14:00.662Z,89
2022-12-11T02:15:03.805Z,89
2022-12-11T02:16:00.739Z,89
2022-12-11T02:17:00.630Z,89
2022-12-11T02:18:00.715Z,89
2022-12-11T02:19:00.617Z,89
2022-12-11T02:20:04.249Z,89
2022-12-11T02:21:00.665Z,89
2022-12-11T02:22:00.770Z,89
2022-12-11T02:23:00.662Z,89
2022-12-11T02:24:00.742Z,89
2022-12-11T02:25:03.897Z,89
2022-12-11T02:26:00.755Z,89
2022-12-11T02:27:00.686Z,89
2022-12-11T02:28:00.798Z,89
2022-12-11T02:29:00.690Z,89
2022-12-11T02:30:04.400Z,89
2022-12-11T02:31:00.750Z,89
2022-12-11T02:32:00.780Z,89
2022-12-11T02:33:00.775Z,89
2022-12-11T02:34:00.853Z,89
2022-12-11T02:35:04.035Z,89
2022-12-11T02:36:00.855Z,89
2022-12-11T02:37:00.759Z,89
2022-12-11T02:38:00.833Z,89
2022-12-11T02:39:00.775Z,89
2022-12-11T02:40:06.053Z,89
2022-12-11T02:41:00.787Z,89
2022-12-11T02:42:00.862Z,89
2022-12-11T02:43:00.805Z,89
2022-12-11T02:44:00.864Z,89
2022-12-11T02:45:04.298Z,89
2022-12-11T02:46:01.048Z,89
2022-12-11T02:47:00.893Z,89
2022-12-11T02:48:00.915Z,89
2022-12-11T02:49:00.858Z,89
2022-12-11T02:50:05.745Z,89
2022-12-11T02:51:00.853Z,90
2022-12-11T02:52:00.994Z,90
2022-12-11T02:53:00.847Z,90
2022-12-11T02:54:01.026Z,90
2022-12-11T02:55:04.291Z,90
2022-12-11T02:56:00.943Z,90
2022-12-11T02:57:00.895Z,90
2022-12-11T02:58:00.986Z,90
2022-12-11T02:59:00.917Z,90
2022-12-11T03:00:04.648Z,90
2022-12-11T03:01:01.007Z,90
2022-12-11T03:02:01.128Z,90
2022-12-11T03:03:00.950Z,90
2022-12-11T03:04:01.057Z,90
2022-12-11T03:05:04.431Z,90
2022-12-11T03:06:01.044Z,90
2022-12-11T03:07:00.980Z,90
2022-12-11T03:08:01.093Z,90
2022-12-11T03:09:00.993Z,90
2022-12-11T03:10:04.837Z,90
2022-12-11T03:11:01.004Z,90
2022-12-11T03:12:01.081Z,90
2022-12-11T03:13:00.995Z,90
2022-12-11T03:14:01.085Z,90
2022-12-11T03:15:04.366Z,90
2022-12-11T03:16:01.201Z,90
2022-12-11T03:17:01.036Z,90
2022-12-11T03:18:01.120Z,90
2022-12-11T03:19:01.026Z,90
2022-12-11T03:20:04.781Z,90
2022-12-11T03:21:01.099Z,90
2022-12-11T03:22:01.189Z,90
2022-12-11T03:23:01.073Z,90
2022-12-11T03:24:01.167Z,90
2022-12-11T03:25:04.300Z,90
2022-12-11T03:26:01.143Z,90
2022-12-11T03:27:01.390Z,90
2022-12-11T03:28:01.210Z,90
2022-12-11T03:29:01.099Z,90
2022-12-11T03:30:37.290Z,90
2022-12-11T03:31:01.160Z,90
2022-12-11T03:32:01.220Z,90
2022-12-11T03:33:01.168Z,90
2022-12-11T03:34:01.266Z,90
2022-12-11T03:35:06.173Z,90
2022-12-11T03:36:01.258Z,90
2022-12-11T03:37:01.157Z,90
2022-12-11T03:38:01.248Z,90
2022-12-11T03:39:00.179Z,90
2022-12-11T03:40:05.281Z,90
2022-12-11T03:41:00.203Z,90
2022-12-11T03:42:00.282Z,90
2022-12-11T03:43:00.190Z,90
2022-12-11T03:44:00.265Z,90
2022-12-11T03:45:03.817Z,90
2022-12-11T03:46:00.343Z,90
2022-12-11T03:47:00.222Z,90
2022-12-11T03:48:00.330Z,91
2022-12-11T03:49:00.237Z,91
2022-12-11T03:50:03.848Z,91
2022-12-11T03:51:00.278Z,91
2022-12-11T03:52:00.958Z,91
2022-12-11T03:53:00.286Z,91
2022-12-11T03:54:00.347Z,91
2022-12-11T03:55:03.704Z,91
2022-12-11T03:56:00.857Z,91
2022-12-11T03:57:00.321Z,91
2022-12-11T03:58:00.418Z,91
2022-12-11T03:59:00.320Z,91
2022-12-11T04:00:04.047Z,91
2022-12-11T04:01:00.360Z,91
2022-12-11T04:02:00.490Z,91
2022-12-11T04:03:00.382Z,91
2022-12-11T04:04:00.556Z,91
2022-12-11T04:05:03.793Z,91
2022-12-11T04:06:00.476Z,91
2022-12-11T04:07:00.389Z,91
2022-12-11T04:08:00.567Z,91
2022-12-11T04:09:00.410Z,91
2022-12-11T04:10:05.324Z,91
2022-12-11T04:11:00.415Z,91
2022-12-11T04:12:00.516Z,91
2022-12-11T04:13:00.459Z,91
2022-12-11T04:14:00.486Z,91
2022-12-11T04:15:03.760Z,91
2022-12-11T04:16:00.602Z,91
2022-12-11T04:17:00.457Z,91
2022-12-11T04:18:00.577Z,91
2022-12-11T04:19:00.485Z,91
2022-12-11T04:20:04.239Z,91
2022-12-11T04:21:00.499Z,91
2022-12-11T04:22:00.583Z,91
2022-12-11T04:23:00.493Z,91
2022-12-11T04:24:00.936Z,91
2022-12-11T04:25:03.681Z,91
2022-12-11T04:26:00.587Z,91
2022-12-11T04:27:00.543Z,91
2022-12-11T04:28:00.622Z,91
2022-12-11T04:29:00.534Z,91
2022-12-11T04:30:05.919Z,91
2022-12-11T04:31:00.605Z,91
2022-12-11T04:32:00.628Z,91
2022-12-11T04:33:00.583Z,91
2022-12-11T04:34:00.666Z,91
2022-12-11T04:35:03.843Z,91
2022-12-11T04:36:00.696Z,91
2022-12-11T04:37:00.598Z,91
2022-12-11T04:38:00.873Z,91
2022-12-11T04:39:00.616Z,91
2022-12-11T04:40:04.688Z,91
2022-12-11T04:41:00.636Z,91
2022-12-11T04:42:00.731Z,91
2022-12-11T04:43:00.629Z,91
2022-12-11T04:44:00.710Z,91
2022-12-11T04:45:04.113Z,91
2022-12-11T04:46:00.842Z,91
2022-12-11T04:47:00.655Z,91
2022-12-11T04:48:00.752Z,91
2022-12-11T04:49:00.680Z,91
2022-12-11T04:50:04.607Z,91
2022-12-11T04:51:00.716Z,91
2022-12-11T04:52:00.930Z,91
2022-12-11T04:53:00.726Z,91
2022-12-11T04:54:00.787Z,91
2022-12-11T04:55:04.076Z,91
2022-12-11T04:56:00.836Z,91
2022-12-11T04:57:00.727Z,91
2022-12-11T04:58:00.813Z,91
2022-12-11T04:59:00.727Z,91
2022-12-11T05:00:06.456Z,91
2022-12-11T05:01:00.755Z,91
2022-12-11T05:02:00.870Z,91
2022-12-11T05:03:00.839Z,91
2022-12-11T05:04:00.853Z,91
2022-12-11T05:05:04.045Z,91
2022-12-11T05:06:00.917Z,91
2022-12-11T05:07:00.792Z,91
2022-12-11T05:08:00.962Z,91
2022-12-11T05:09:00.805Z,91
2022-12-11T05:10:05.920Z,91
2022-12-11T05:11:00.810Z,91
2022-12-11T05:12:00.906Z,91
2022-12-11T05:13:00.823Z,91
2022-12-11T05:14:00.886Z,91
2022-12-11T05:15:04.096Z,91
2022-12-11T05:16:00.965Z,91
2022-12-11T05:17:00.864Z,91
2022-12-11T05:18:00.937Z,91
2022-12-11T05:19:00.847Z,91
2022-12-11T05:20:04.605Z,91
2022-12-11T05:21:00.887Z,91
2022-12-11T05:22:00.990Z,91
2022-12-11T05:23:00.877Z,91
2022-12-11T05:24:00.969Z,91
2022-12-11T05:25:05.950Z,91
2022-12-11T05:26:00.999Z,91
2022-12-11T05:27:00.922Z,91
2022-12-11T05:28:01.045Z,91
2022-12-11T05:29:00.941Z,91
2022-12-11T05:30:05.025Z,91
2022-12-11T05:31:01.001Z,91
2022-12-11T05:32:01.013Z,91
2022-12-11T05:33:00.970Z,91
2022-12-11T05:34:01.067Z,91
2022-12-11T05:35:04.521Z,91
2022-12-11T05:36:01.057Z,91
2022-12-11T05:37:00.971Z,91
2022-12-11T05:38:01.050Z,92
2022-12-11T05:39:01.014Z,92
2022-12-11T05:40:04.892Z,92
2022-12-11T05:41:01.023Z,92
2022-12-11T05:42:01.101Z,92
2022-12-11T05:43:01.016Z,92
2022-12-11T05:44:01.433Z,92
2022-12-11T05:45:04.610Z,92
2022-12-11T05:46:01.140Z,92
2022-12-11T05:47:01.095Z,92
2022-12-11T05:48:01.148Z,92
2022-12-11T05:49:01.055Z,92
2022-12-11T05:50:05.041Z,92
2022-12-11T05:51:01.077Z,92
2022-12-11T05:52:01.176Z,92
2022-12-11T05:53:01.078Z,92
2022-12-11T05:54:01.185Z,92
2022-12-11T05:55:04.612Z,92
2022-12-11T05:56:01.170Z,92
2022-12-11T05:57:01.133Z,92
2022-12-11T05:58:01.224Z,92
2022-12-11T05:59:01.121Z,92
2022-12-11T06:00:06.233Z,92
2022-12-11T06:01:01.164Z,92
2022-12-11T06:02:00.326Z,92
2022-12-11T06:03:00.357Z,92
2022-12-11T06:04:00.313Z,92
2022-12-11T06:05:03.797Z,92
2022-12-11T06:06:00.883Z,92
2022-12-11T06:07:00.221Z,92
2022-12-11T06:08:00.377Z,92
2022-12-11T06:09:00.237Z,92
2022-12-11T06:10:04.110Z,92
2022-12-11T06:11:00.275Z,92
2022-12-11T06:12:00.334Z,92
2022-12-11T06:13:00.260Z,92
2022-12-11T06:14:00.315Z,92
2022-12-11T06:15:03.801Z,92
2022-12-11T06:16:00.482Z,92
2022-12-11T06:17:00.289Z,92
2022-12-11T06:18:00.383Z,92
2022-12-11T06:19:00.296Z,92
2022-12-11T06:20:05.642Z,92
2022-12-11T06:21:00.325Z,92
2022-12-11T06:22:00.402Z,92
2022-12-11T06:23:00.315Z,92
2022-12-11T06:24:00.416Z,92
2022-12-11T06:25:03.832Z,92
2022-12-11T06:26:00.387Z,92
2022-12-11T06:27:00.359Z,92
2022-12-11T06:28:00.504Z,92
2022-12-11T06:29:00.367Z,92
2022-12-11T06:30:38.758Z,92
2022-12-11T06:31:00.359Z,92
2022-12-11T06:32:00.492Z,92
2022-12-11T06:33:00.383Z,92
2022-12-11T06:34:00.853Z,92
2022-12-11T06:35:03.864Z,92
2022-12-11T06:36:00.478Z,92
2022-12-11T06:37:00.388Z,92
2022-12-11T06:38:00.472Z,92
2022-12-11T06:39:00.419Z,92
2022-12-11T06:40:05.257Z,92
2022-12-11T06:41:00.414Z,92
2022-12-11T06:42:00.510Z,92
2022-12-11T06:43:00.439Z,92
2022-12-11T06:44:00.841Z,92
2022-12-11T06:45:03.751Z,92
2022-12-11T06:46:03.779Z,92
2022-12-11T06:47:00.456Z,92
2022-12-11T06:48:00.933Z,92
2022-12-11T06:49:00.471Z,92
2022-12-11T06:50:04.199Z,92
2022-12-11T06:51:00.505Z,92
2022-12-11T06:52:00.611Z,92
2022-12-11T06:53:00.515Z,92
2022-12-11T06:54:00.576Z,92
2022-12-11T06:55:03.749Z,92
2022-12-11T06:56:00.614Z,92
2022-12-11T06:57:00.531Z,92
2022-12-11T06:58:00.622Z,92
2022-12-11T06:59:05.735Z,92
2022-12-11T07:00:36.893Z,92
2022-12-11T07:01:00.635Z,92
2022-12-11T07:02:00.738Z,92
2022-12-11T07:03:00.599Z,92
2022-12-11T07:04:00.951Z,92
2022-12-11T07:05:09.572Z,92
2022-12-11T07:06:00.681Z,92
2022-12-11T07:07:00.601Z,92
2022-12-11T07:08:00.768Z,92
2022-12-11T07:09:00.625Z,92
2022-12-11T07:10:08.292Z,92
2022-12-11T07:11:00.641Z,92
2022-12-11T07:12:00.704Z,92
2022-12-11T07:13:00.660Z,92
2022-12-11T07:14:00.715Z,92
2022-12-11T07:15:05.966Z,92
2022-12-11T07:16:00.859Z,92
2022-12-11T07:17:00.658Z,92
2022-12-11T07:18:00.964Z,92
2022-12-11T07:19:00.682Z,92
2022-12-11T07:20:04.329Z,92
2022-12-11T07:21:00.735Z,92
2022-12-11T07:22:00.892Z,92
2022-12-11T07:23:00.701Z,92
2022-12-11T07:24:00.799Z,92
2022-12-11T07:25:05.389Z,92
2022-12-11T07:26:00.777Z,92
2022-12-11T07:27:00.769Z,92
2022-12-11T07:28:00.794Z,92
2022-12-11T07:29:00.740Z,92
2022-12-11T07:30:05.902Z,92
2022-12-11T07:31:00.758Z,92
2022-12-11T07:32:00.971Z,92
2022-12-11T07:33:00.838Z,92
2022-12-11T07:34:00.848Z,92
2022-12-11T07:35:04.219Z,92
2022-12-11T07:36:00.883Z,92
2022-12-11T07:37:00.818Z,92
2022-12-11T07:38:00.890Z,92
2022-12-11T07:39:00.857Z,92
2022-12-11T07:40:04.579Z,92
2022-12-11T07:41:00.821Z,92
2022-12-11T07:42:00.917Z,92
2022-12-11T07:43:00.851Z,92
2022-12-11T07:44:00.926Z,92
2022-12-11T07:45:04.260Z,93
2022-12-11T07:46:01.147Z,93
2022-12-11T07:47:00.909Z,93
2022-12-11T07:48:00.953Z,93
2022-12-11T07:49:00.903Z,93
2022-12-11T07:50:04.748Z,93
2022-12-11T07:51:00.952Z,93
2022-12-11T07:52:00.992Z,93
2022-12-11T07:53:00.930Z,93
2022-12-11T07:54:00.998Z,93
2022-12-11T07:55:04.333Z,93
2022-12-11T07:56:01.007Z,93
2022-12-11T07:57:00.996Z,93
2022-12-11T07:58:01.034Z,93
2022-12-11T07:59:00.940Z,93
2022-12-11T08:00:05.089Z,93
2022-12-11T08:01:01.052Z,93
2022-12-11T08:02:01.116Z,93
2022-12-11T08:03:01.029Z,93
2022-12-11T08:04:01.083Z,93
2022-12-11T08:05:05.597Z,93
2022-12-11T08:06:01.104Z,93
2022-12-11T08:07:01.012Z,93
2022-12-11T08:08:01.173Z,93
2022-12-11T08:09:01.081Z,93
2022-12-11T08:10:06.480Z,93
2022-12-11T08:11:01.063Z,93
2022-12-11T08:12:01.150Z,93
2022-12-11T08:13:01.086Z,93
2022-12-11T08:14:01.207Z,93
2022-12-11T08:15:04.799Z,93
2022-12-11T08:16:01.188Z,93
2022-12-11T08:17:01.120Z,93
2022-12-11T08:18:01.188Z,93
2022-12-11T08:19:01.130Z,93
2022-12-11T08:20:06.196Z,93
2022-12-11T08:21:01.158Z,93
2022-12-11T08:22:01.200Z,93
2022-12-11T08:23:01.140Z,93
2022-12-11T08:24:01.267Z,93
2022-12-11T08:25:04.789Z,93
2022-12-11T08:26:01.293Z,93
2022-12-11T08:27:01.191Z,93
2022-12-11T08:28:00.248Z,93
2022-12-11T08:29:00.197Z,93
2022-12-11T08:30:05.138Z,93
2022-12-11T08:31:00.261Z,93
2022-12-11T08:32:00.307Z,93
2022-12-11T08:33:00.211Z,93
2022-12-11T08:34:00.901Z,93
2022-12-11T08:35:03.745Z,93
2022-12-11T08:36:00.323Z,93
2022-12-11T08:37:00.237Z,93
2022-12-11T08:38:00.926Z,93
2022-12-11T08:39:00.267Z,93
2022-12-11T08:40:04.232Z,93
2022-12-11T08:41:00.276Z,93
2022-12-11T08:42:00.363Z,93
2022-12-11T08:43:00.264Z,93
2022-12-11T08:44:00.425Z,93
2022-12-11T08:45:04.026Z,93
2022-12-11T08:46:00.589Z,93
2022-12-11T08:47:00.309Z,93
2022-12-11T08:48:00.394Z,93
2022-12-11T08:49:00.354Z,93
2022-12-11T08:50:05.356Z,93
2022-12-11T08:51:00.360Z,93
2022-12-11T08:52:00.906Z,93
2022-12-11T08:53:00.362Z,93
2022-12-11T08:54:00.447Z,93
2022-12-11T08:55:03.757Z,93
2022-12-11T08:56:00.529Z,93
2022-12-11T08:57:00.380Z,93
2022-12-11T08:58:00.442Z,93
2022-12-11T08:59:00.398Z,93
2022-12-11T09:00:04.395Z,93
2022-12-11T09:01:00.423Z,92
2022-12-11T09:02:00.490Z,92
2022-12-11T09:03:00.430Z,92
2022-12-11T09:04:00.482Z,92
2022-12-11T09:05:05.497Z,92
2022-12-11T09:06:00.909Z,92
2022-12-11T09:07:00.454Z,92
2022-12-11T09:08:00.626Z,92
2022-12-11T09:09:00.453Z,92
2022-12-11T09:10:04.050Z,92
2022-12-11T09:11:00.478Z,92
2022-12-11T09:12:00.598Z,92
2022-12-11T09:13:00.461Z,92
2022-12-11T09:14:06.760Z,92
2022-12-11T09:15:03.827Z,92
2022-12-11T09:16:00.703Z,92
2022-12-11T09:17:00.502Z,92
2022-12-11T09:18:00.625Z,92
2022-12-11T09:19:00.504Z,92
2022-12-11T09:20:05.367Z,92
2022-12-11T09:21:00.541Z,92
2022-12-11T09:22:00.595Z,92
2022-12-11T09:23:00.582Z,92
2022-12-11T09:24:00.647Z,92
2022-12-11T09:25:03.998Z,92
2022-12-11T09:26:00.660Z,92
2022-12-11T09:27:00.593Z,92
2022-12-11T09:28:00.686Z,92
2022-12-11T09:29:00.597Z,92
2022-12-11T09:30:04.508Z,92
2022-12-11T09:31:00.740Z,92
2022-12-11T09:32:00.710Z,92
2022-12-11T09:33:00.637Z,92
2022-12-11T09:34:00.911Z,92
2022-12-11T09:35:04.301Z,92
2022-12-11T09:36:00.727Z,92
2022-12-11T09:37:00.653Z,92
2022-12-11T09:38:00.937Z,92
2022-12-11T09:39:00.670Z,92
2022-12-11T09:40:07.728Z,92
2022-12-11T09:41:00.686Z,92
2022-12-11T09:42:00.810Z,92
2022-12-11T09:43:00.689Z,92
2022-12-11T09:44:00.828Z,92
2022-12-11T09:45:04.312Z,92
2022-12-11T09:46:00.798Z,92
2022-12-11T09:47:00.695Z,92
2022-12-11T09:48:00.782Z,92
2022-12-11T09:49:00.730Z,91
2022-12-11T09:50:04.711Z,91
2022-12-11T09:51:00.740Z,91
2022-12-11T09:52:00.814Z,91
2022-12-11T09:53:00.742Z,91
2022-12-11T09:54:00.850Z,91
2022-12-11T09:55:04.139Z,91
2022-12-11T09:56:00.963Z,91
2022-12-11T09:57:00.778Z,91
2022-12-11T09:58:00.846Z,91
2022-12-11T09:59:00.792Z,91
2022-12-11T10:00:06.306Z,91
2022-12-11T10:01:00.827Z,91
2022-12-11T10:02:00.939Z,91
2022-12-11T10:03:00.923Z,91
2022-12-11T10:04:00.921Z,91
2022-12-11T10:05:04.152Z,91
2022-12-11T10:06:04.538Z,91
2022-12-11T10:07:00.870Z,91
2022-12-11T10:08:01.009Z,91
2022-12-11T10:09:00.883Z,91
2022-12-11T10:10:04.699Z,91
2022-12-11T10:11:00.897Z,91
2022-12-11T10:12:00.972Z,91
2022-12-11T10:13:01.027Z,91
2022-12-11T10:14:01.003Z,91
2022-12-11T10:15:04.316Z,91
2022-12-11T10:16:01.012Z,91
2022-12-11T10:17:00.912Z,91
2022-12-11T10:18:04.905Z,91
2022-12-11T10:19:00.923Z,91
2022-12-11T10:20:04.847Z,91
2022-12-11T10:21:00.976Z,91
2022-12-11T10:22:01.027Z,90
2022-12-11T10:23:00.966Z,90
2022-12-11T10:24:01.073Z,90
2022-12-11T10:25:11.132Z,90
2022-12-11T10:26:01.095Z,90
2022-12-11T10:27:00.999Z,90
2022-12-11T10:28:01.060Z,90
2022-12-11T10:29:01.002Z,90
2022-12-11T10:30:37.180Z,90
2022-12-11T10:31:01.048Z,90
2022-12-11T10:32:01.140Z,90
2022-12-11T10:33:01.049Z,90
2022-12-11T10:34:01.121Z,90
2022-12-11T10:35:04.354Z,90
2022-12-11T10:36:01.130Z,90
2022-12-11T10:37:01.056Z,90
2022-12-11T10:38:01.169Z,90
2022-12-11T10:39:01.078Z,90
2022-12-11T10:40:06.218Z,90
2022-12-11T10:41:01.080Z,90
2022-12-11T10:42:01.167Z,90
2022-12-11T10:43:01.102Z,90
2022-12-11T10:44:01.201Z,90
2022-12-11T10:45:05.040Z,90
2022-12-11T10:46:01.304Z,90
2022-12-11T10:47:01.113Z,89
2022-12-11T10:48:01.210Z,89
2022-12-11T10:49:01.136Z,89
2022-12-11T10:50:06.492Z,89
2022-12-11T10:51:01.163Z,89
2022-12-11T10:52:01.232Z,89
2022-12-11T10:53:01.169Z,89
2022-12-11T10:54:06.884Z,89
2022-12-11T10:55:06.120Z,89
2022-12-11T10:56:00.909Z,89
2022-12-11T10:57:00.213Z,89
2022-12-11T10:58:00.272Z,89
2022-12-11T10:59:00.230Z,89
2022-12-11T11:00:36.364Z,89
2022-12-11T11:01:00.238Z,89
2022-12-11T11:02:00.410Z,89
2022-12-11T11:03:00.331Z,89
2022-12-11T11:04:00.950Z,89
2022-12-11T11:05:04.836Z,89
2022-12-11T11:06:00.364Z,89
2022-12-11T11:07:00.285Z,89
2022-12-11T11:08:00.449Z,89
2022-12-11T11:09:00.316Z,89
2022-12-11T11:10:05.031Z,89
2022-12-11T11:11:00.312Z,89
2022-12-11T11:12:06.012Z,89
2022-12-11T11:13:00.336Z,89
2022-12-11T11:14:00.403Z,89
2022-12-11T11:15:03.701Z,89
2022-12-11T11:16:00.461Z,89
2022-12-11T11:17:00.679Z,89
2022-12-11T11:18:00.972Z,89
2022-12-11T11:19:00.347Z,89
2022-12-11T11:20:04.106Z,89
2022-12-11T11:21:00.383Z,89
2022-12-11T11:22:00.447Z,89
2022-12-11T11:23:00.389Z,89
2022-12-11T11:24:00.471Z,89
2022-12-11T11:25:03.692Z,89
2022-12-11T11:26:00.518Z,89
2022-12-11T11:27:13.674Z,89
2022-12-11T11:28:00.489Z,89
2022-12-11T11:29:00.448Z,89
2022-12-11T11:30:04.186Z,89
2022-12-11T11:31:00.495Z,89
2022-12-11T11:32:00.959Z,89
2022-12-11T11:33:00.466Z,88
2022-12-11T11:34:00.543Z,88
2022-12-11T11:35:03.976Z,88
2022-12-11T11:36:00.979Z,88
2022-12-11T11:37:00.492Z,88
2022-12-11T11:38:00.951Z,88
2022-12-11T11:39:00.498Z,88
2022-12-11T11:40:04.369Z,88
2022-12-11T11:41:04.985Z,88
2022-12-11T11:42:00.613Z,88
2022-12-11T11:43:00.520Z,88
2022-12-11T11:44:00.650Z,88
2022-12-11T11:45:04.039Z,88
2022-12-11T11:46:00.597Z,88
2022-12-11T11:47:00.550Z,88
2022-12-11T11:48:00.634Z,88
2022-12-11T11:49:00.557Z,88
2022-12-11T11:50:05.947Z,88
2022-12-11T11:51:00.597Z,88
2022-12-11T11:52:00.960Z,88
2022-12-11T11:53:00.601Z,87
2022-12-11T11:54:00.676Z,87
2022-12-11T11:55:03.808Z,87
2022-12-11T11:56:00.720Z,87
2022-12-11T11:57:00.638Z,87
2022-12-11T11:58:00.712Z,87
2022-12-11T11:59:00.648Z,87
2022-12-11T12:00:05.638Z,87
2022-12-11T12:01:00.666Z,87
2022-12-11T12:02:00.764Z,87
2022-12-11T12:03:00.726Z,87
2022-12-11T12:04:00.758Z,87
2022-12-11T12:05:04.142Z,87
2022-12-11T12:06:00.922Z,87
2022-12-11T12:07:00.691Z,87
2022-12-11T12:08:01.107Z,87
2022-12-11T12:09:00.722Z,87
2022-12-11T12:10:06.029Z,87
2022-12-11T12:11:00.735Z,87
2022-12-11T12:12:00.829Z,87
2022-12-11T12:13:00.753Z,87
2022-12-11T12:14:00.877Z,87
2022-12-11T12:15:04.441Z,87
2022-12-11T12:16:00.921Z,87
2022-12-11T12:17:00.829Z,87
2022-12-11T12:18:00.882Z,87
2022-12-11T12:19:00.820Z,87
2022-12-11T12:20:05.777Z,87
2022-12-11T12:21:00.822Z,87
2022-12-11T12:22:00.909Z,87
2022-12-11T12:23:00.825Z,87
2022-12-11T12:24:00.944Z,87
2022-12-11T12:25:04.231Z,87
2022-12-11T12:26:00.944Z,87
2022-12-11T12:27:00.873Z,87
2022-12-11T12:28:00.927Z,86
2022-12-11T12:29:00.865Z,86
2022-12-11T12:30:04.689Z,86
2022-12-11T12:31:00.885Z,86
2022-12-11T12:32:01.000Z,86
2022-12-11T12:33:00.884Z,86
2022-12-11T12:34:00.978Z,86
2022-12-11T12:35:04.421Z,86
2022-12-11T12:36:06.596Z,86
2022-12-11T12:37:00.920Z,86
2022-12-11T12:38:01.009Z,86
2022-12-11T12:39:00.942Z,86
2022-12-11T12:40:05.049Z,86
2022-12-11T12:41:00.944Z,86
2022-12-11T12:42:07.066Z,86
2022-12-11T12:43:00.957Z,86
2022-12-11T12:44:01.137Z,86
2022-12-11T12:45:06.015Z,86
2022-12-11T12:46:01.133Z,86
2022-12-11T12:47:00.970Z,86
2022-12-11T12:48:01.072Z,86
2022-12-11T12:49:00.997Z,86
2022-12-11T12:50:04.534Z,86
2022-12-11T12:51:01.011Z,86
2022-12-11T12:52:01.106Z,86
2022-12-11T12:53:01.005Z,86
2022-12-11T12:54:01.110Z,86
2022-12-11T12:55:04.628Z,86
2022-12-11T12:56:01.160Z,86
2022-12-11T12:57:01.042Z,86
2022-12-11T12:58:01.118Z,86
2022-12-11T12:59:01.074Z,86
2022-12-11T13:00:12.622Z,86
2022-12-11T13:01:01.134Z,86
2022-12-11T13:02:01.277Z,86
2022-12-11T13:03:01.111Z,86
2022-12-11T13:04:01.175Z,86
2022-12-11T13:05:04.502Z,86
2022-12-11T13:06:01.209Z,85
2022-12-11T13:07:01.132Z,85
2022-12-11T13:08:01.352Z,85
2022-12-11T13:09:01.169Z,85
2022-12-11T13:10:06.015Z,85
2022-12-11T13:11:01.164Z,85
2022-12-11T13:12:01.289Z,85
2022-12-11T13:13:01.163Z,85
2022-12-11T13:14:01.272Z,85
2022-12-11T13:15:03.692Z,85
2022-12-11T13:16:00.295Z,85
2022-12-11T13:17:00.226Z,85
2022-12-11T13:18:00.288Z,85
2022-12-11T13:19:00.212Z,85
2022-12-11T13:20:04.114Z,85
2022-12-11T13:21:00.265Z,85
2022-12-11T13:22:00.336Z,85
2022-12-11T13:23:00.255Z,85
2022-12-11T13:24:00.984Z,85
2022-12-11T13:25:03.790Z,85
2022-12-11T13:26:00.367Z,85
2022-12-11T13:27:00.299Z,85
2022-12-11T13:28:00.378Z,85
2022-12-11T13:29:00.303Z,85
2022-12-11T13:30:04.000Z,85
2022-12-11T13:31:00.305Z,85
2022-12-11T13:32:00.520Z,85
2022-12-11T13:33:00.328Z,85
2022-12-11T13:34:00.382Z,85
2022-12-11T13:35:03.741Z,85
2022-12-11T13:36:00.439Z,85
2022-12-11T13:37:00.370Z,85
2022-12-11T13:38:00.981Z,85
2022-12-11T13:39:00.381Z,85
2022-12-11T13:40:05.529Z,85
2022-12-11T13:41:00.402Z,85
2022-12-11T13:42:00.969Z,85
2022-12-11T13:43:00.412Z,85
2022-12-11T13:44:00.548Z,85
2022-12-11T13:45:03.807Z,85
2022-12-11T13:46:00.605Z,85
2022-12-11T13:47:00.432Z,86
2022-12-11T13:48:00.548Z,86
2022-12-11T13:49:00.484Z,86
2022-12-11T13:50:04.477Z,86
2022-12-11T13:51:00.496Z,86
2022-12-11T13:52:00.554Z,85
2022-12-11T13:53:00.494Z,85
2022-12-11T13:54:00.570Z,85
2022-12-11T13:55:04.114Z,85
2022-12-11T13:56:01.246Z,85
2022-12-11T13:57:00.505Z,85
2022-12-11T13:58:00.609Z,85
2022-12-11T13:59:00.524Z,85
2022-12-11T14:00:04.563Z,85
2022-12-11T14:01:00.605Z,85
2022-12-11T14:02:00.752Z,85
2022-12-11T14:03:00.566Z,85
2022-12-11T14:04:00.657Z,85
2022-12-11T14:05:04.087Z,85
2022-12-11T14:06:00.670Z,85
2022-12-11T14:07:00.592Z,85
2022-12-11T14:08:00.735Z,85
2022-12-11T14:09:00.616Z,85
2022-12-11T14:10:04.492Z,85
2022-12-11T14:11:00.620Z,85
2022-12-11T14:12:00.688Z,85
2022-12-11T14:13:00.614Z,85
2022-12-11T14:14:01.006Z,85
2022-12-11T14:15:04.152Z,85